createdAt,value
2018-02-07T07:33:52.336Z,38.45
2018-02-07T07:36:20.672Z,40.10
2018-02-07T07:38:48.558Z,39.08
2018-02-07T10:16:14.592Z,38.38
2018-02-07T10:18:54.002Z,37.58
2018-02-07T10:21:25.664Z,36.85
2018-02-07T10:23:57.004Z,37.00
2018-02-07T10:26:31.244Z,36.00
2018-02-07T11:53:40.541Z,34.00
2018-02-07T12:17:35.809Z,31.52
2018-02-07T12:20:02.660Z,33.10
2018-02-07T12:22:29.439Z,32.90
2018-02-07T12:24:56.264Z,34.60
2018-02-07T12:27:23.158Z,32.88
2018-02-07T12:29:50.646Z,35.47
2018-02-07T12:56:22.892Z,33.60
2018-02-07T12:58:49.692Z,33.45
2018-02-07T13:01:16.463Z,32.90
2018-02-07T13:03:44.009Z,34.72
2018-02-07T13:06:10.812Z,33.47
2018-02-07T13:08:37.584Z,34.33
2018-02-07T13:11:04.414Z,34.45
2018-02-07T13:13:31.237Z,34.17
2018-02-07T13:15:58.733Z,36.45
2018-02-07T13:18:25.549Z,36.60
2018-02-07T13:20:56.769Z,38.45
2018-02-07T13:23:23.557Z,33.35
2018-02-07T13:25:50.348Z,33.25
2018-02-07T13:28:17.878Z,34.30
2018-02-07T13:30:44.696Z,36.47
2018-02-07T13:33:12.244Z,34.42
2018-02-07T13:35:39.051Z,31.50
2018-02-07T13:38:05.857Z,31.73
2018-02-07T13:40:32.622Z,32.17
2018-02-07T13:42:59.400Z,31.15
2018-02-07T13:45:26.953Z,31.08
2018-02-07T13:47:53.757Z,32.72
2018-02-07T13:50:20.604Z,32.75
2018-02-07T13:52:47.441Z,34.67
2018-02-07T13:55:14.262Z,33.67
2018-02-07T13:57:41.088Z,34.63
2018-02-07T14:00:08.645Z,32.65
2018-02-07T14:02:35.414Z,33.42
2018-02-07T14:05:02.999Z,32.92
2018-02-07T14:07:30.567Z,36.05
2018-02-07T14:09:58.850Z,36.45
2018-02-07T14:12:25.692Z,34.78
2018-02-07T14:14:52.498Z,34.03
2018-02-07T14:17:19.351Z,33.47
2018-02-07T14:19:46.150Z,31.33
2018-02-07T14:22:12.935Z,30.67
2018-02-07T14:24:39.764Z,29.58
2018-02-07T14:27:06.534Z,26.98
2018-02-07T14:29:33.589Z,25.30
2018-02-07T14:32:00.416Z,27.05
2018-02-07T14:34:27.978Z,25.00
2018-02-07T14:36:54.766Z,23.10
2018-02-07T14:39:21.547Z,23.05
2018-02-07T14:41:48.339Z,23.87
2018-02-07T14:44:15.093Z,24.65
2018-02-07T14:46:41.910Z,25.42
2018-02-07T14:49:08.764Z,23.15
2018-02-07T14:51:36.310Z,24.80
2018-02-07T14:54:03.114Z,25.80
2018-02-07T14:56:29.909Z,24.33
2018-02-07T14:58:56.703Z,25.12
2018-02-07T15:01:23.557Z,25.90
2018-02-07T15:03:50.426Z,25.40
2018-02-07T15:06:17.247Z,25.02
2018-02-07T15:08:44.008Z,25.92
2018-02-07T15:11:10.791Z,23.92
2018-02-07T15:13:37.585Z,23.67
2018-02-07T15:16:05.126Z,24.90
2018-02-07T15:18:31.945Z,26.60
2018-02-07T15:20:58.836Z,27.20
2018-02-07T15:23:25.728Z,27.37
2018-02-07T15:25:52.519Z,25.83
2018-02-07T15:28:19.309Z,25.37
2018-02-07T15:30:46.100Z,25.27
2018-02-07T15:33:12.914Z,25.58
2018-02-07T15:35:39.761Z,26.37
2018-02-07T15:38:06.565Z,25.02
2018-02-07T15:40:33.371Z,25.05
2018-02-07T15:43:00.208Z,26.20
2018-02-07T15:45:27.012Z,24.30
2018-02-07T15:47:53.859Z,25.00
2018-02-07T15:50:20.681Z,25.37
2018-02-07T15:52:47.508Z,25.30
2018-02-07T15:55:14.337Z,23.90
2018-02-07T15:57:41.915Z,25.30
2018-02-07T16:00:09.448Z,24.15
2018-02-07T16:02:36.274Z,24.40
2018-02-07T16:05:03.172Z,25.10
2018-02-07T16:07:30.635Z,24.50
2018-02-07T16:09:57.512Z,24.73
2018-02-07T16:12:24.266Z,24.50
2018-02-07T16:14:51.144Z,23.45
2018-02-07T16:17:17.901Z,24.60
2018-02-07T16:19:44.713Z,25.83
2018-02-07T16:22:11.536Z,23.83
2018-02-07T16:27:38.364Z,22.87
2018-02-07T16:33:10.610Z,23.62
2018-02-07T16:35:37.493Z,22.95
2018-02-07T16:44:05.532Z,25.17
2018-02-07T18:46:16.119Z,23.12
2018-02-07T18:48:42.987Z,25.70
2018-02-07T18:51:10.835Z,27.08
2018-02-07T18:53:38.054Z,25.67
2018-02-07T18:56:05.238Z,26.00
2018-02-07T18:58:34.630Z,24.95
2018-02-07T19:01:03.305Z,25.23
2018-02-07T19:03:31.424Z,25.42
2018-02-07T19:05:59.090Z,26.58
2018-02-07T19:08:27.008Z,25.60
2018-02-07T19:10:53.876Z,26.65
2018-02-07T19:13:21.060Z,26.40
2018-02-07T19:15:48.773Z,27.42
2018-02-07T19:18:15.842Z,25.00
2018-02-07T19:20:43.678Z,26.52
2018-02-07T19:23:11.560Z,25.40
2018-02-07T19:25:39.590Z,25.17
2018-02-07T19:28:09.019Z,28.05
2018-02-07T19:30:37.639Z,28.45
2018-02-07T19:35:40.307Z,24.00
2018-02-07T19:38:09.170Z,25.50
2018-02-07T19:40:37.972Z,25.98
2018-02-07T19:43:06.813Z,24.33
2018-02-07T19:45:36.105Z,25.00
2018-02-07T19:48:05.665Z,25.88
2018-02-07T19:50:34.449Z,24.67
2018-02-07T19:53:03.458Z,24.00
2018-02-07T19:58:16.054Z,28.40
2018-02-07T20:00:50.729Z,26.92
2018-02-07T20:05:58.889Z,25.48
2018-02-07T20:08:27.843Z,26.42
2018-02-07T20:10:56.408Z,26.48
2018-02-07T20:13:25.429Z,26.37
2018-02-07T20:15:54.351Z,29.10
2018-02-07T20:18:23.719Z,26.67
2018-02-07T20:20:52.628Z,26.85
2018-02-07T20:23:24.381Z,25.67
2018-02-07T20:25:55.572Z,28.62
2018-02-07T20:31:01.556Z,28.30
2018-02-07T20:33:31.297Z,29.65
2018-02-07T20:36:02.714Z,25.98
2018-02-07T20:41:12.442Z,28.65
2018-02-07T20:43:41.565Z,28.00
2018-02-07T20:46:10.693Z,26.95
2018-02-07T20:48:39.638Z,25.12
2018-02-07T20:51:09.120Z,26.87
2018-02-07T20:53:37.649Z,26.65
2018-02-07T20:56:04.758Z,27.27
2018-02-07T20:58:31.784Z,28.20
2018-02-07T21:01:00.186Z,27.08
2018-02-07T21:03:27.246Z,27.60
2018-02-07T21:06:04.579Z,28.48
2018-02-07T21:08:32.155Z,26.95
2018-02-07T21:10:59.356Z,30.02
2018-02-07T21:13:26.444Z,26.62
2018-02-07T21:15:53.185Z,27.65
2018-02-07T21:18:19.943Z,28.30
2018-02-07T21:20:46.783Z,28.45
2018-02-07T21:23:13.597Z,27.33
2018-02-07T21:25:40.426Z,27.23
2018-02-07T21:28:07.249Z,28.58
2018-02-07T21:30:34.152Z,27.37
2018-02-07T21:33:00.964Z,27.50
2018-02-07T21:35:28.079Z,27.05
2018-02-07T21:37:55.109Z,25.58
2018-02-07T21:40:22.631Z,26.60
2018-02-07T21:42:49.909Z,27.08
2018-02-07T21:45:16.856Z,25.52
2018-02-07T21:47:43.908Z,26.75
2018-02-07T21:50:11.439Z,26.58
2018-02-07T21:52:39.293Z,26.00
2018-02-07T21:55:06.365Z,25.37
2018-02-07T21:57:33.467Z,26.58
2018-02-07T22:00:00.523Z,27.27
2018-02-07T22:02:28.220Z,24.85
2018-02-07T22:04:55.763Z,25.88
2018-02-07T22:07:24.645Z,27.52
2018-02-07T22:09:57.559Z,26.50
2018-02-07T22:12:26.142Z,28.40
2018-02-07T22:14:53.618Z,27.85
2018-02-07T22:17:20.596Z,27.30
2018-02-07T22:19:47.648Z,27.35
2018-02-07T22:22:16.951Z,26.15
2018-02-07T22:24:44.042Z,24.65
2018-02-07T22:27:11.387Z,25.15
2018-02-07T22:29:38.237Z,24.85
2018-02-07T22:32:06.111Z,24.73
2018-02-07T22:34:33.686Z,28.05
2018-02-07T22:37:16.848Z,27.13
2018-02-07T22:39:43.756Z,28.33
2018-02-07T22:42:10.576Z,25.67
2018-02-07T22:44:37.371Z,26.00
2018-02-07T22:47:06.420Z,26.75
2018-02-07T22:49:33.352Z,25.95
2018-02-07T22:52:00.205Z,27.58
2018-02-07T22:54:27.876Z,26.55
2018-02-07T22:56:54.746Z,28.20
2018-02-07T22:59:21.593Z,27.77
2018-02-07T23:01:48.424Z,29.33
2018-02-07T23:04:15.258Z,27.30
2018-02-07T23:06:42.139Z,26.87
2018-02-07T23:09:08.992Z,26.70
2018-02-07T23:11:35.862Z,29.67
2018-02-07T23:14:02.698Z,26.90
2018-02-07T23:16:29.562Z,27.67
2018-02-07T23:18:56.383Z,27.37
2018-02-07T23:21:23.208Z,27.67
2018-02-07T23:23:50.059Z,28.62
2018-02-07T23:26:16.921Z,28.00
2018-02-07T23:28:43.766Z,27.48
2018-02-07T23:31:10.616Z,27.58
2018-02-07T23:33:37.441Z,29.80
2018-02-07T23:36:04.343Z,29.65
2018-02-07T23:38:31.952Z,28.40
2018-02-07T23:40:58.795Z,28.00
2018-02-07T23:43:25.661Z,28.35
2018-02-07T23:45:53.353Z,30.95
2018-02-07T23:48:20.153Z,28.23
2018-02-07T23:50:46.973Z,29.83
2018-02-07T23:53:14.069Z,29.37
2018-02-07T23:55:41.679Z,28.00
2018-02-07T23:58:08.850Z,27.80
